sensor_id;sensor_type;location;lat;lon;timestamp;P1;durP1;ratioP1;P2;durP2;ratioP2
21647;SDS011;10985;54.182;7.890;2023-07-31T00:01:18;22.63;;;4.90;;
21647;SDS011;10985;54.182;7.890;2023-07-31T00:03:45;29.63;;;5.63;;
21647;SDS011;10985;54.182;7.890;2023-07-31T00:06:11;27.05;;;4.88;;
21647;SDS011;10985;54.182;7.890;2023-07-31T00:08:37;27.80;;;5.72;;
21647;SDS011;10985;54.182;7.890;2023-07-31T00:11:02;25.17;;;5.20;;
21647;SDS011;10985;54.182;7.890;2023-07-31T00:13:28;31.05;;;5.40;;
21647;SDS011;10985;54.182;7.890;2023-07-31T00:15:53;34.80;;;4.75;;
21647;SDS011;10985;54.182;7.890;2023-07-31T00:18:19;39.95;;;6.32;;
21647;SDS011;10985;54.182;7.890;2023-07-31T00:20:44;32.58;;;5.38;;
21647;SDS011;10985;54.182;7.890;2023-07-31T00:23:10;25.85;;;5.47;;
21647;SDS011;10985;54.182;7.890;2023-07-31T00:25:35;24.90;;;5.38;;
21647;SDS011;10985;54.182;7.890;2023-07-31T00:28:01;31.77;;;5.38;;
21647;SDS011;10985;54.182;7.890;2023-07-31T00:30:26;21.23;;;4.93;;
21647;SDS011;10985;54.182;7.890;2023-07-31T00:32:52;24.80;;;4.75;;
21647;SDS011;10985;54.182;7.890;2023-07-31T00:35:17;23.63;;;4.68;;
21647;SDS011;10985;54.182;7.890;2023-07-31T00:37:43;20.58;;;4.93;;
21647;SDS011;10985;54.182;7.890;2023-07-31T00:40:08;26.83;;;5.28;;
21647;SDS011;10985;54.182;7.890;2023-07-31T00:42:34;24.98;;;4.93;;
21647;SDS011;10985;54.182;7.890;2023-07-31T00:44:59;21.70;;;5.07;;
21647;SDS011;10985;54.182;7.890;2023-07-31T00:47:25;24.70;;;4.63;;
21647;SDS011;10985;54.182;7.890;2023-07-31T00:49:51;26.63;;;4.70;;
21647;SDS011;10985;54.182;7.890;2023-07-31T00:52:17;32.50;;;5.25;;
21647;SDS011;10985;54.182;7.890;2023-07-31T00:54:44;29.33;;;5.78;;
21647;SDS011;10985;54.182;7.890;2023-07-31T00:57:09;27.33;;;5.40;;
21647;SDS011;10985;54.182;7.890;2023-07-31T00:59:35;25.23;;;4.70;;
21647;SDS011;10985;54.182;7.890;2023-07-31T01:02:01;21.67;;;3.83;;
21647;SDS011;10985;54.182;7.890;2023-07-31T01:04:27;22.88;;;4.32;;
21647;SDS011;10985;54.182;7.890;2023-07-31T01:06:56;24.00;;;4.55;;
21647;SDS011;10985;54.182;7.890;2023-07-31T01:09:52;24.88;;;4.55;;
21647;SDS011;10985;54.182;7.890;2023-07-31T01:12:33;20.73;;;4.93;;
21647;SDS011;10985;54.182;7.890;2023-07-31T01:15:06;23.98;;;4.97;;
21647;SDS011;10985;54.182;7.890;2023-07-31T01:17:36;29.00;;;5.22;;
21647;SDS011;10985;54.182;7.890;2023-07-31T01:20:03;28.90;;;6.65;;
21647;SDS011;10985;54.182;7.890;2023-07-31T01:28:03;27.95;;;5.97;;
21647;SDS011;10985;54.182;7.890;2023-07-31T01:30:33;29.45;;;6.55;;
21647;SDS011;10985;54.182;7.890;2023-07-31T01:33:02;30.33;;;5.78;;
21647;SDS011;10985;54.182;7.890;2023-07-31T01:35:36;30.08;;;5.97;;
21647;SDS011;10985;54.182;7.890;2023-07-31T01:38:02;21.92;;;5.78;;
21647;SDS011;10985;54.182;7.890;2023-07-31T01:40:29;25.60;;;5.35;;
21647;SDS011;10985;54.182;7.890;2023-07-31T01:42:55;24.15;;;5.53;;
21647;SDS011;10985;54.182;7.890;2023-07-31T01:45:20;16.38;;;4.82;;
21647;SDS011;10985;54.182;7.890;2023-07-31T01:47:46;20.70;;;5.68;;
21647;SDS011;10985;54.182;7.890;2023-07-31T01:50:11;22.50;;;5.60;;
21647;SDS011;10985;54.182;7.890;2023-07-31T01:52:37;18.58;;;5.13;;
21647;SDS011;10985;54.182;7.890;2023-07-31T01:55:03;26.35;;;6.13;;
21647;SDS011;10985;54.182;7.890;2023-07-31T01:57:28;25.27;;;4.97;;
21647;SDS011;10985;54.182;7.890;2023-07-31T01:59:54;20.30;;;5.07;;
21647;SDS011;10985;54.182;7.890;2023-07-31T02:02:19;22.27;;;5.20;;
21647;SDS011;10985;54.182;7.890;2023-07-31T02:04:48;22.15;;;6.10;;
21647;SDS011;10985;54.182;7.890;2023-07-31T02:07:13;21.48;;;6.97;;
21647;SDS011;10985;54.182;7.890;2023-07-31T02:09:39;19.35;;;7.22;;
21647;SDS011;10985;54.182;7.890;2023-07-31T02:12:05;19.52;;;6.18;;
21647;SDS011;10985;54.182;7.890;2023-07-31T02:14:31;19.08;;;6.38;;
21647;SDS011;10985;54.182;7.890;2023-07-31T02:16:56;30.25;;;7.07;;
21647;SDS011;10985;54.182;7.890;2023-07-31T02:19:21;22.67;;;6.20;;
21647;SDS011;10985;54.182;7.890;2023-07-31T02:21:47;26.48;;;7.53;;
21647;SDS011;10985;54.182;7.890;2023-07-31T02:24:12;19.15;;;7.50;;
21647;SDS011;10985;54.182;7.890;2023-07-31T02:26:38;22.00;;;6.95;;
21647;SDS011;10985;54.182;7.890;2023-07-31T02:29:04;20.75;;;6.65;;
21647;SDS011;10985;54.182;7.890;2023-07-31T02:31:29;20.80;;;7.05;;
21647;SDS011;10985;54.182;7.890;2023-07-31T02:33:55;23.52;;;7.32;;
21647;SDS011;10985;54.182;7.890;2023-07-31T02:36:20;22.70;;;6.97;;
21647;SDS011;10985;54.182;7.890;2023-07-31T02:38:46;21.83;;;7.10;;
21647;SDS011;10985;54.182;7.890;2023-07-31T02:41:11;21.90;;;5.35;;
21647;SDS011;10985;54.182;7.890;2023-07-31T02:43:37;19.92;;;6.25;;
21647;SDS011;10985;54.182;7.890;2023-07-31T02:46:02;16.13;;;6.75;;
21647;SDS011;10985;54.182;7.890;2023-07-31T02:48:28;28.35;;;6.45;;
21647;SDS011;10985;54.182;7.890;2023-07-31T02:50:53;27.98;;;5.97;;
21647;SDS011;10985;54.182;7.890;2023-07-31T02:53:19;25.35;;;7.10;;
21647;SDS011;10985;54.182;7.890;2023-07-31T02:55:44;17.75;;;6.32;;
21647;SDS011;10985;54.182;7.890;2023-07-31T02:58:10;23.60;;;5.45;;
21647;SDS011;10985;54.182;7.890;2023-07-31T03:00:35;19.10;;;5.25;;
21647;SDS011;10985;54.182;7.890;2023-07-31T03:03:01;18.77;;;4.97;;
21647;SDS011;10985;54.182;7.890;2023-07-31T03:05:26;21.30;;;5.95;;
21647;SDS011;10985;54.182;7.890;2023-07-31T03:07:52;24.67;;;5.40;;
21647;SDS011;10985;54.182;7.890;2023-07-31T03:10:17;22.92;;;5.57;;
21647;SDS011;10985;54.182;7.890;2023-07-31T03:12:45;24.42;;;4.93;;
21647;SDS011;10985;54.182;7.890;2023-07-31T03:15:12;20.38;;;4.53;;
21647;SDS011;10985;54.182;7.890;2023-07-31T03:17:37;21.13;;;5.53;;
21647;SDS011;10985;54.182;7.890;2023-07-31T03:20:03;16.52;;;4.22;;
21647;SDS011;10985;54.182;7.890;2023-07-31T03:22:29;19.17;;;5.43;;
21647;SDS011;10985;54.182;7.890;2023-07-31T03:24:54;19.70;;;4.80;;
21647;SDS011;10985;54.182;7.890;2023-07-31T03:27:20;23.60;;;5.18;;
21647;SDS011;10985;54.182;7.890;2023-07-31T03:29:45;20.85;;;4.78;;
21647;SDS011;10985;54.182;7.890;2023-07-31T03:32:11;21.10;;;4.60;;
21647;SDS011;10985;54.182;7.890;2023-07-31T03:34:36;23.02;;;5.07;;
21647;SDS011;10985;54.182;7.890;2023-07-31T03:37:02;19.75;;;3.88;;
21647;SDS011;10985;54.182;7.890;2023-07-31T03:39:29;25.75;;;4.53;;
21647;SDS011;10985;54.182;7.890;2023-07-31T03:41:55;19.83;;;4.20;;
21647;SDS011;10985;54.182;7.890;2023-07-31T03:44:20;15.38;;;3.85;;
21647;SDS011;10985;54.182;7.890;2023-07-31T03:46:46;13.70;;;3.95;;
21647;SDS011;10985;54.182;7.890;2023-07-31T03:49:11;15.60;;;4.28;;
21647;SDS011;10985;54.182;7.890;2023-07-31T03:51:37;22.40;;;4.70;;
21647;SDS011;10985;54.182;7.890;2023-07-31T03:54:02;17.55;;;4.43;;
21647;SDS011;10985;54.182;7.890;2023-07-31T03:56:28;25.45;;;4.40;;
21647;SDS011;10985;54.182;7.890;2023-07-31T03:58:54;18.00;;;4.15;;
21647;SDS011;10985;54.182;7.890;2023-07-31T04:01:19;13.90;;;4.05;;
21647;SDS011;10985;54.182;7.890;2023-07-31T04:03:45;13.30;;;4.22;;
21647;SDS011;10985;54.182;7.890;2023-07-31T04:06:10;15.23;;;4.03;;
21647;SDS011;10985;54.182;7.890;2023-07-31T04:08:36;18.25;;;3.80;;
21647;SDS011;10985;54.182;7.890;2023-07-31T04:11:01;11.32;;;3.65;;
21647;SDS011;10985;54.182;7.890;2023-07-31T04:13:28;14.75;;;4.03;;
21647;SDS011;10985;54.182;7.890;2023-07-31T04:15:54;14.70;;;4.00;;
21647;SDS011;10985;54.182;7.890;2023-07-31T04:18:20;20.10;;;4.70;;
21647;SDS011;10985;54.182;7.890;2023-07-31T04:20:46;18.83;;;4.18;;
21647;SDS011;10985;54.182;7.890;2023-07-31T04:23:11;14.95;;;4.15;;
21647;SDS011;10985;54.182;7.890;2023-07-31T04:25:37;13.45;;;4.60;;
21647;SDS011;10985;54.182;7.890;2023-07-31T04:28:02;20.27;;;4.25;;
21647;SDS011;10985;54.182;7.890;2023-07-31T04:30:28;11.60;;;4.15;;
21647;SDS011;10985;54.182;7.890;2023-07-31T04:32:53;14.30;;;3.58;;
21647;SDS011;10985;54.182;7.890;2023-07-31T04:35:19;14.48;;;3.88;;
21647;SDS011;10985;54.182;7.890;2023-07-31T04:37:44;14.73;;;4.05;;
21647;SDS011;10985;54.182;7.890;2023-07-31T04:40:13;13.57;;;3.83;;
21647;SDS011;10985;54.182;7.890;2023-07-31T04:42:39;12.98;;;3.97;;
21647;SDS011;10985;54.182;7.890;2023-07-31T04:45:05;18.65;;;4.00;;
21647;SDS011;10985;54.182;7.890;2023-07-31T04:47:30;17.67;;;3.65;;
21647;SDS011;10985;54.182;7.890;2023-07-31T04:49:56;14.07;;;3.65;;
21647;SDS011;10985;54.182;7.890;2023-07-31T04:52:21;14.18;;;3.80;;
21647;SDS011;10985;54.182;7.890;2023-07-31T04:54:47;13.23;;;3.25;;
21647;SDS011;10985;54.182;7.890;2023-07-31T04:57:12;12.43;;;3.50;;
21647;SDS011;10985;54.182;7.890;2023-07-31T04:59:38;11.90;;;3.30;;
21647;SDS011;10985;54.182;7.890;2023-07-31T05:02:04;12.50;;;3.25;;
21647;SDS011;10985;54.182;7.890;2023-07-31T05:04:30;13.80;;;3.40;;
21647;SDS011;10985;54.182;7.890;2023-07-31T05:06:55;8.57;;;3.22;;
21647;SDS011;10985;54.182;7.890;2023-07-31T05:09:21;12.00;;;3.08;;
21647;SDS011;10985;54.182;7.890;2023-07-31T05:11:46;12.52;;;2.90;;
21647;SDS011;10985;54.182;7.890;2023-07-31T05:14:12;12.95;;;3.13;;
21647;SDS011;10985;54.182;7.890;2023-07-31T05:16:37;13.90;;;3.70;;
21647;SDS011;10985;54.182;7.890;2023-07-31T05:19:03;10.23;;;2.92;;
21647;SDS011;10985;54.182;7.890;2023-07-31T05:21:28;8.10;;;3.00;;
21647;SDS011;10985;54.182;7.890;2023-07-31T05:23:54;14.90;;;3.72;;
21647;SDS011;10985;54.182;7.890;2023-07-31T05:26:19;15.43;;;3.88;;
21647;SDS011;10985;54.182;7.890;2023-07-31T05:28:45;24.52;;;4.22;;
21647;SDS011;10985;54.182;7.890;2023-07-31T05:31:10;17.70;;;4.20;;
21647;SDS011;10985;54.182;7.890;2023-07-31T05:33:36;13.23;;;3.40;;
21647;SDS011;10985;54.182;7.890;2023-07-31T05:36:01;17.38;;;3.95;;
21647;SDS011;10985;54.182;7.890;2023-07-31T05:38:27;22.98;;;4.45;;
21647;SDS011;10985;54.182;7.890;2023-07-31T05:40:53;12.18;;;4.20;;
21647;SDS011;10985;54.182;7.890;2023-07-31T05:43:18;18.45;;;5.30;;
21647;SDS011;10985;54.182;7.890;2023-07-31T05:45:44;14.65;;;5.07;;
21647;SDS011;10985;54.182;7.890;2023-07-31T05:48:09;24.75;;;5.50;;
21647;SDS011;10985;54.182;7.890;2023-07-31T05:50:35;22.90;;;5.82;;
21647;SDS011;10985;54.182;7.890;2023-07-31T05:53:00;24.20;;;5.70;;
21647;SDS011;10985;54.182;7.890;2023-07-31T05:55:26;15.70;;;4.95;;
21647;SDS011;10985;54.182;7.890;2023-07-31T05:57:54;14.23;;;4.32;;
21647;SDS011;10985;54.182;7.890;2023-07-31T06:00:20;7.50;;;3.58;;
21647;SDS011;10985;54.182;7.890;2023-07-31T06:02:47;14.73;;;4.45;;
21647;SDS011;10985;54.182;7.890;2023-07-31T06:05:13;26.85;;;5.03;;
21647;SDS011;10985;54.182;7.890;2023-07-31T06:07:38;20.33;;;5.22;;
21647;SDS011;10985;54.182;7.890;2023-07-31T06:10:04;15.90;;;4.55;;
21647;SDS011;10985;54.182;7.890;2023-07-31T06:12:33;22.08;;;5.40;;
21647;SDS011;10985;54.182;7.890;2023-07-31T06:14:59;18.40;;;4.43;;
21647;SDS011;10985;54.182;7.890;2023-07-31T06:17:25;17.02;;;4.40;;
21647;SDS011;10985;54.182;7.890;2023-07-31T06:19:51;17.48;;;4.75;;
21647;SDS011;10985;54.182;7.890;2023-07-31T06:22:17;23.63;;;4.85;;
21647;SDS011;10985;54.182;7.890;2023-07-31T06:24:43;11.93;;;3.92;;
21647;SDS011;10985;54.182;7.890;2023-07-31T06:27:09;17.88;;;4.03;;
21647;SDS011;10985;54.182;7.890;2023-07-31T06:29:35;9.82;;;3.90;;
21647;SDS011;10985;54.182;7.890;2023-07-31T06:32:00;15.13;;;4.00;;
21647;SDS011;10985;54.182;7.890;2023-07-31T06:34:26;14.80;;;4.13;;
21647;SDS011;10985;54.182;7.890;2023-07-31T06:36:52;13.13;;;3.70;;
21647;SDS011;10985;54.182;7.890;2023-07-31T06:39:17;15.55;;;4.70;;
21647;SDS011;10985;54.182;7.890;2023-07-31T06:41:43;14.95;;;4.18;;
21647;SDS011;10985;54.182;7.890;2023-07-31T06:44:09;16.73;;;3.97;;
21647;SDS011;10985;54.182;7.890;2023-07-31T06:46:34;18.67;;;4.03;;
21647;SDS011;10985;54.182;7.890;2023-07-31T06:49:00;16.90;;;4.13;;
21647;SDS011;10985;54.182;7.890;2023-07-31T06:51:25;12.38;;;4.10;;
21647;SDS011;10985;54.182;7.890;2023-07-31T06:53:51;11.98;;;3.85;;
21647;SDS011;10985;54.182;7.890;2023-07-31T06:56:16;15.38;;;3.67;;
21647;SDS011;10985;54.182;7.890;2023-07-31T06:58:42;14.65;;;3.15;;
21647;SDS011;10985;54.182;7.890;2023-07-31T07:01:08;18.88;;;4.18;;
21647;SDS011;10985;54.182;7.890;2023-07-31T07:03:33;12.70;;;4.40;;
21647;SDS011;10985;54.182;7.890;2023-07-31T07:05:59;16.80;;;4.82;;
21647;SDS011;10985;54.182;7.890;2023-07-31T07:08:25;10.75;;;4.18;;
21647;SDS011;10985;54.182;7.890;2023-07-31T07:10:51;15.02;;;4.15;;
21647;SDS011;10985;54.182;7.890;2023-07-31T07:13:16;19.75;;;4.70;;
21647;SDS011;10985;54.182;7.890;2023-07-31T07:15:43;13.15;;;3.85;;
21647;SDS011;10985;54.182;7.890;2023-07-31T07:18:12;17.13;;;4.15;;
21647;SDS011;10985;54.182;7.890;2023-07-31T07:20:38;12.05;;;4.20;;
21647;SDS011;10985;54.182;7.890;2023-07-31T07:23:04;13.98;;;4.10;;
21647;SDS011;10985;54.182;7.890;2023-07-31T07:25:30;19.70;;;3.55;;
21647;SDS011;10985;54.182;7.890;2023-07-31T07:27:55;15.93;;;4.15;;
21647;SDS011;10985;54.182;7.890;2023-07-31T07:30:21;12.90;;;4.60;;
21647;SDS011;10985;54.182;7.890;2023-07-31T07:32:47;15.65;;;4.22;;
21647;SDS011;10985;54.182;7.890;2023-07-31T07:35:13;10.45;;;3.70;;
21647;SDS011;10985;54.182;7.890;2023-07-31T07:37:38;9.90;;;3.90;;
21647;SDS011;10985;54.182;7.890;2023-07-31T07:40:04;13.18;;;4.50;;
21647;SDS011;10985;54.182;7.890;2023-07-31T07:42:30;13.38;;;3.90;;
21647;SDS011;10985;54.182;7.890;2023-07-31T07:44:55;10.57;;;3.92;;
21647;SDS011;10985;54.182;7.890;2023-07-31T07:47:21;8.65;;;3.40;;
21647;SDS011;10985;54.182;7.890;2023-07-31T07:49:47;20.17;;;4.10;;
21647;SDS011;10985;54.182;7.890;2023-07-31T07:52:12;12.73;;;4.28;;
21647;SDS011;10985;54.182;7.890;2023-07-31T07:54:38;11.30;;;4.63;;
21647;SDS011;10985;54.182;7.890;2023-07-31T07:57:03;15.38;;;4.50;;
21647;SDS011;10985;54.182;7.890;2023-07-31T07:59:29;18.10;;;4.68;;
21647;SDS011;10985;54.182;7.890;2023-07-31T08:01:54;15.07;;;4.57;;
21647;SDS011;10985;54.182;7.890;2023-07-31T08:04:20;11.52;;;4.00;;
21647;SDS011;10985;54.182;7.890;2023-07-31T08:06:45;16.75;;;5.30;;
21647;SDS011;10985;54.182;7.890;2023-07-31T08:09:11;16.25;;;4.85;;
21647;SDS011;10985;54.182;7.890;2023-07-31T08:11:36;15.45;;;4.38;;
21647;SDS011;10985;54.182;7.890;2023-07-31T08:14:02;12.75;;;4.68;;
21647;SDS011;10985;54.182;7.890;2023-07-31T08:16:27;16.20;;;4.88;;
21647;SDS011;10985;54.182;7.890;2023-07-31T08:18:53;19.65;;;5.03;;
21647;SDS011;10985;54.182;7.890;2023-07-31T08:21:18;19.88;;;4.80;;
21647;SDS011;10985;54.182;7.890;2023-07-31T08:23:44;16.50;;;4.70;;
21647;SDS011;10985;54.182;7.890;2023-07-31T08:26:16;18.75;;;6.25;;
21647;SDS011;10985;54.182;7.890;2023-07-31T08:28:42;17.55;;;5.50;;
21647;SDS011;10985;54.182;7.890;2023-07-31T08:31:08;14.07;;;4.70;;
21647;SDS011;10985;54.182;7.890;2023-07-31T08:33:33;28.30;;;5.13;;
21647;SDS011;10985;54.182;7.890;2023-07-31T08:35:59;17.10;;;5.30;;
21647;SDS011;10985;54.182;7.890;2023-07-31T08:38:26;25.23;;;9.50;;
21647;SDS011;10985;54.182;7.890;2023-07-31T08:40:51;12.85;;;3.22;;
21647;SDS011;10985;54.182;7.890;2023-07-31T08:43:17;17.08;;;3.55;;
21647;SDS011;10985;54.182;7.890;2023-07-31T08:45:43;9.55;;;3.53;;
21647;SDS011;10985;54.182;7.890;2023-07-31T08:48:09;8.15;;;3.05;;
21647;SDS011;10985;54.182;7.890;2023-07-31T08:50:36;6.13;;;2.80;;
21647;SDS011;10985;54.182;7.890;2023-07-31T08:53:03;12.18;;;3.28;;
21647;SDS011;10985;54.182;7.890;2023-07-31T08:55:28;7.43;;;2.38;;
21647;SDS011;10985;54.182;7.890;2023-07-31T08:57:56;8.75;;;2.67;;
21647;SDS011;10985;54.182;7.890;2023-07-31T09:00:22;5.65;;;2.15;;
21647;SDS011;10985;54.182;7.890;2023-07-31T09:03:01;7.15;;;2.47;;
21647;SDS011;10985;54.182;7.890;2023-07-31T09:05:32;10.48;;;2.90;;
21647;SDS011;10985;54.182;7.890;2023-07-31T09:07:58;9.48;;;2.88;;
21647;SDS011;10985;54.182;7.890;2023-07-31T09:10:27;9.65;;;2.72;;
21647;SDS011;10985;54.182;7.890;2023-07-31T09:12:52;4.20;;;2.00;;
21647;SDS011;10985;54.182;7.890;2023-07-31T09:15:18;5.95;;;2.08;;
21647;SDS011;10985;54.182;7.890;2023-07-31T09:17:43;7.38;;;2.22;;
21647;SDS011;10985;54.182;7.890;2023-07-31T09:20:13;4.82;;;2.00;;
21647;SDS011;10985;54.182;7.890;2023-07-31T09:22:39;8.90;;;2.30;;
21647;SDS011;10985;54.182;7.890;2023-07-31T09:25:14;4.68;;;2.05;;
21647;SDS011;10985;54.182;7.890;2023-07-31T09:27:59;3.78;;;1.70;;
21647;SDS011;10985;54.182;7.890;2023-07-31T09:30:26;9.80;;;2.03;;
21647;SDS011;10985;54.182;7.890;2023-07-31T09:33:00;2.53;;;1.75;;
21647;SDS011;10985;54.182;7.890;2023-07-31T09:35:30;9.18;;;1.90;;
21647;SDS011;10985;54.182;7.890;2023-07-31T09:38:02;4.35;;;2.20;;
21647;SDS011;10985;54.182;7.890;2023-07-31T09:40:30;5.35;;;1.98;;
21647;SDS011;10985;54.182;7.890;2023-07-31T09:43:00;5.38;;;1.80;;
21647;SDS011;10985;54.182;7.890;2023-07-31T09:45:27;4.45;;;1.98;;
21647;SDS011;10985;54.182;7.890;2023-07-31T09:47:54;3.67;;;1.70;;
21647;SDS011;10985;54.182;7.890;2023-07-31T09:50:21;11.70;;;2.30;;
21647;SDS011;10985;54.182;7.890;2023-07-31T09:52:48;8.27;;;2.35;;
21647;SDS011;10985;54.182;7.890;2023-07-31T09:55:14;2.72;;;1.77;;
21647;SDS011;10985;54.182;7.890;2023-07-31T09:57:40;3.72;;;1.90;;
21647;SDS011;10985;54.182;7.890;2023-07-31T10:00:08;7.07;;;2.10;;
21647;SDS011;10985;54.182;7.890;2023-07-31T10:02:34;10.23;;;2.17;;
21647;SDS011;10985;54.182;7.890;2023-07-31T10:05:02;6.78;;;2.75;;
21647;SDS011;10985;54.182;7.890;2023-07-31T10:07:29;4.32;;;2.30;;
21647;SDS011;10985;54.182;7.890;2023-07-31T10:09:57;4.88;;;2.28;;
21647;SDS011;10985;54.182;7.890;2023-07-31T10:12:25;3.05;;;1.90;;
21647;SDS011;10985;54.182;7.890;2023-07-31T10:14:55;3.88;;;1.65;;
21647;SDS011;10985;54.182;7.890;2023-07-31T10:17:21;4.53;;;1.60;;
21647;SDS011;10985;54.182;7.890;2023-07-31T10:19:48;6.28;;;1.83;;
21647;SDS011;10985;54.182;7.890;2023-07-31T10:22:14;6.00;;;1.88;;
21647;SDS011;10985;54.182;7.890;2023-07-31T10:24:43;5.57;;;2.78;;
21647;SDS011;10985;54.182;7.890;2023-07-31T10:27:10;4.72;;;1.90;;
21647;SDS011;10985;54.182;7.890;2023-07-31T10:29:39;5.75;;;2.00;;
21647;SDS011;10985;54.182;7.890;2023-07-31T10:32:08;5.03;;;1.88;;
21647;SDS011;10985;54.182;7.890;2023-07-31T10:34:36;5.85;;;2.15;;
21647;SDS011;10985;54.182;7.890;2023-07-31T10:37:19;6.65;;;2.55;;
21647;SDS011;10985;54.182;7.890;2023-07-31T10:39:45;8.70;;;4.05;;
21647;SDS011;10985;54.182;7.890;2023-07-31T10:42:23;5.45;;;2.55;;
21647;SDS011;10985;54.182;7.890;2023-07-31T10:45:00;7.25;;;1.98;;
21647;SDS011;10985;54.182;7.890;2023-07-31T10:47:27;3.42;;;2.22;;
21647;SDS011;10985;54.182;7.890;2023-07-31T10:49:53;8.13;;;2.38;;
21647;SDS011;10985;54.182;7.890;2023-07-31T10:52:35;6.60;;;2.08;;
21647;SDS011;10985;54.182;7.890;2023-07-31T10:55:23;5.82;;;2.30;;
21647;SDS011;10985;54.182;7.890;2023-07-31T10:58:19;5.55;;;1.83;;
21647;SDS011;10985;54.182;7.890;2023-07-31T11:00:48;3.38;;;1.90;;
21647;SDS011;10985;54.182;7.890;2023-07-31T11:03:15;3.78;;;2.00;;
21647;SDS011;10985;54.182;7.890;2023-07-31T11:08:21;5.20;;;2.20;;
21647;SDS011;10985;54.182;7.890;2023-07-31T11:10:50;4.85;;;1.95;;
21647;SDS011;10985;54.182;7.890;2023-07-31T11:15:55;4.70;;;2.28;;
21647;SDS011;10985;54.182;7.890;2023-07-31T11:18:20;11.65;;;2.40;;
21647;SDS011;10985;54.182;7.890;2023-07-31T11:20:46;7.18;;;2.67;;
21647;SDS011;10985;54.182;7.890;2023-07-31T11:23:12;7.65;;;2.20;;
21647;SDS011;10985;54.182;7.890;2023-07-31T11:25:38;5.57;;;2.10;;
21647;SDS011;10985;54.182;7.890;2023-07-31T11:28:13;6.00;;;1.80;;
21647;SDS011;10985;54.182;7.890;2023-07-31T11:30:40;4.35;;;2.65;;
21647;SDS011;10985;54.182;7.890;2023-07-31T11:33:07;2.35;;;2.00;;
21647;SDS011;10985;54.182;7.890;2023-07-31T11:35:34;5.03;;;1.77;;
21647;SDS011;10985;54.182;7.890;2023-07-31T11:38:01;6.57;;;1.98;;
21647;SDS011;10985;54.182;7.890;2023-07-31T11:40:27;3.90;;;1.92;;
21647;SDS011;10985;54.182;7.890;2023-07-31T11:42:57;3.00;;;1.67;;
21647;SDS011;10985;54.182;7.890;2023-07-31T11:45:26;4.72;;;1.60;;
21647;SDS011;10985;54.182;7.890;2023-07-31T11:47:53;4.13;;;1.33;;
21647;SDS011;10985;54.182;7.890;2023-07-31T11:50:20;5.82;;;1.75;;
21647;SDS011;10985;54.182;7.890;2023-07-31T11:52:46;5.22;;;1.73;;
21647;SDS011;10985;54.182;7.890;2023-07-31T11:55:15;4.32;;;1.80;;
21647;SDS011;10985;54.182;7.890;2023-07-31T11:57:41;4.88;;;2.20;;
21647;SDS011;10985;54.182;7.890;2023-07-31T12:00:10;3.92;;;1.80;;
21647;SDS011;10985;54.182;7.890;2023-07-31T12:02:38;4.60;;;1.92;;
21647;SDS011;10985;54.182;7.890;2023-07-31T12:05:10;4.22;;;1.88;;
21647;SDS011;10985;54.182;7.890;2023-07-31T12:07:46;2.38;;;1.55;;
21647;SDS011;10985;54.182;7.890;2023-07-31T12:10:25;3.65;;;1.30;;
21647;SDS011;10985;54.182;7.890;2023-07-31T12:18:11;1.30;;;1.20;;
21647;SDS011;10985;54.182;7.890;2023-07-31T12:20:47;1.08;;;0.85;;
21647;SDS011;10985;54.182;7.890;2023-07-31T12:23:15;2.03;;;1.17;;
21647;SDS011;10985;54.182;7.890;2023-07-31T12:25:54;1.08;;;0.98;;
21647;SDS011;10985;54.182;7.890;2023-07-31T12:28:25;2.28;;;1.00;;
21647;SDS011;10985;54.182;7.890;2023-07-31T12:30:51;1.55;;;1.45;;
21647;SDS011;10985;54.182;7.890;2023-07-31T12:33:16;2.17;;;1.30;;
21647;SDS011;10985;54.182;7.890;2023-07-31T12:35:45;1.95;;;1.23;;
21647;SDS011;10985;54.182;7.890;2023-07-31T12:38:12;1.80;;;1.60;;
21647;SDS011;10985;54.182;7.890;2023-07-31T12:40:38;2.60;;;0.88;;
21647;SDS011;10985;54.182;7.890;2023-07-31T12:43:05;2.22;;;1.52;;
21647;SDS011;10985;54.182;7.890;2023-07-31T12:45:31;1.30;;;1.20;;
21647;SDS011;10985;54.182;7.890;2023-07-31T12:47:57;2.63;;;1.58;;
21647;SDS011;10985;54.182;7.890;2023-07-31T12:50:24;1.23;;;1.13;;
21647;SDS011;10985;54.182;7.890;2023-07-31T12:52:50;2.90;;;1.50;;
21647;SDS011;10985;54.182;7.890;2023-07-31T12:55:17;2.53;;;0.90;;
21647;SDS011;10985;54.182;7.890;2023-07-31T12:57:43;1.48;;;1.17;;
21647;SDS011;10985;54.182;7.890;2023-07-31T13:00:09;1.63;;;1.13;;
21647;SDS011;10985;54.182;7.890;2023-07-31T13:02:36;1.20;;;1.10;;
21647;SDS011;10985;54.182;7.890;2023-07-31T13:05:01;0.82;;;0.82;;
21647;SDS011;10985;54.182;7.890;2023-07-31T13:07:27;2.58;;;2.38;;
21647;SDS011;10985;54.182;7.890;2023-07-31T13:09:53;1.90;;;1.80;;
21647;SDS011;10985;54.182;7.890;2023-07-31T13:12:18;1.55;;;0.88;;
21647;SDS011;10985;54.182;7.890;2023-07-31T13:14:44;1.65;;;1.10;;
21647;SDS011;10985;54.182;7.890;2023-07-31T13:17:09;1.23;;;1.10;;
21647;SDS011;10985;54.182;7.890;2023-07-31T13:19:35;1.15;;;1.05;;
21647;SDS011;10985;54.182;7.890;2023-07-31T13:22:00;1.30;;;1.00;;
21647;SDS011;10985;54.182;7.890;2023-07-31T13:24:26;1.33;;;1.00;;
21647;SDS011;10985;54.182;7.890;2023-07-31T13:26:51;0.85;;;0.70;;
21647;SDS011;10985;54.182;7.890;2023-07-31T13:29:17;1.13;;;0.90;;
21647;SDS011;10985;54.182;7.890;2023-07-31T13:31:42;1.10;;;1.00;;
21647;SDS011;10985;54.182;7.890;2023-07-31T13:34:08;1.45;;;0.98;;
21647;SDS011;10985;54.182;7.890;2023-07-31T13:36:33;1.05;;;0.80;;
21647;SDS011;10985;54.182;7.890;2023-07-31T13:38:59;2.40;;;0.73;;
21647;SDS011;10985;54.182;7.890;2023-07-31T13:41:25;2.17;;;1.02;;
21647;SDS011;10985;54.182;7.890;2023-07-31T13:43:51;0.98;;;0.80;;
21647;SDS011;10985;54.182;7.890;2023-07-31T13:46:17;1.00;;;0.90;;
21647;SDS011;10985;54.182;7.890;2023-07-31T13:48:42;1.00;;;0.90;;
21647;SDS011;10985;54.182;7.890;2023-07-31T13:51:08;1.13;;;1.00;;
21647;SDS011;10985;54.182;7.890;2023-07-31T13:53:33;1.20;;;1.00;;
21647;SDS011;10985;54.182;7.890;2023-07-31T13:55:58;1.50;;;1.40;;
21647;SDS011;10985;54.182;7.890;2023-07-31T13:58:24;1.35;;;1.23;;
21647;SDS011;10985;54.182;7.890;2023-07-31T14:00:50;1.58;;;1.48;;
21647;SDS011;10985;54.182;7.890;2023-07-31T14:03:15;1.05;;;0.95;;
21647;SDS011;10985;54.182;7.890;2023-07-31T14:05:41;1.45;;;1.17;;
21647;SDS011;10985;54.182;7.890;2023-07-31T14:08:06;1.77;;;1.00;;
21647;SDS011;10985;54.182;7.890;2023-07-31T14:10:32;1.63;;;1.40;;
21647;SDS011;10985;54.182;7.890;2023-07-31T14:12:57;3.38;;;1.00;;
21647;SDS011;10985;54.182;7.890;2023-07-31T14:15:23;0.85;;;0.60;;
21647;SDS011;10985;54.182;7.890;2023-07-31T14:17:48;1.25;;;1.05;;
21647;SDS011;10985;54.182;7.890;2023-07-31T14:20:14;2.10;;;0.90;;
21647;SDS011;10985;54.182;7.890;2023-07-31T14:22:39;2.30;;;1.10;;
21647;SDS011;10985;54.182;7.890;2023-07-31T14:25:05;1.60;;;0.90;;
21647;SDS011;10985;54.182;7.890;2023-07-31T14:27:31;1.02;;;0.95;;
21647;SDS011;10985;54.182;7.890;2023-07-31T14:29:56;1.08;;;0.98;;
21647;SDS011;10985;54.182;7.890;2023-07-31T14:32:22;1.55;;;1.20;;
21647;SDS011;10985;54.182;7.890;2023-07-31T14:34:50;2.70;;;1.40;;
21647;SDS011;10985;54.182;7.890;2023-07-31T14:37:16;10.80;;;1.15;;
21647;SDS011;10985;54.182;7.890;2023-07-31T14:39:42;2.47;;;0.90;;
21647;SDS011;10985;54.182;7.890;2023-07-31T14:42:08;1.10;;;1.00;;
21647;SDS011;10985;54.182;7.890;2023-07-31T14:44:34;1.35;;;1.25;;
21647;SDS011;10985;54.182;7.890;2023-07-31T14:46:59;1.67;;;0.90;;
21647;SDS011;10985;54.182;7.890;2023-07-31T14:49:25;0.95;;;0.90;;
21647;SDS011;10985;54.182;7.890;2023-07-31T14:51:52;1.00;;;0.93;;
21647;SDS011;10985;54.182;7.890;2023-07-31T14:54:17;1.63;;;1.10;;